sensor_id;sensor_type;location;lat;lon;timestamp;temperature;humidity
34646;DHT22;20857;47.808;12.482;2023-11-21T00:00:55;9.40;99.90
34646;DHT22;20857;47.808;12.482;2023-11-21T00:03:20;9.40;99.90
34646;DHT22;20857;47.808;12.482;2023-11-21T00:05:48;9.30;99.90
34646;DHT22;20857;47.808;12.482;2023-11-21T00:08:14;9.30;99.90
34646;DHT22;20857;47.808;12.482;2023-11-21T00:10:40;9.30;99.90
34646;DHT22;20857;47.808;12.482;2023-11-21T00:13:05;9.20;99.90
34646;DHT22;20857;47.808;12.482;2023-11-21T00:15:31;9.20;99.90
34646;DHT22;20857;47.808;12.482;2023-11-21T00:17:56;9.30;99.90
34646;DHT22;20857;47.808;12.482;2023-11-21T00:20:22;9.40;99.90
34646;DHT22;20857;47.808;12.482;2023-11-21T00:22:47;9.20;99.90
34646;DHT22;20857;47.808;12.482;2023-11-21T00:25:13;9.20;99.90
34646;DHT22;20857;47.808;12.482;2023-11-21T00:27:41;9.20;99.90
34646;DHT22;20857;47.808;12.482;2023-11-21T00:30:07;9.20;99.90
34646;DHT22;20857;47.808;12.482;2023-11-21T00:32:36;9.20;99.90
34646;DHT22;20857;47.808;12.482;2023-11-21T00:35:02;9.20;99.90
34646;DHT22;20857;47.808;12.482;2023-11-21T00:37:27;9.00;99.90
34646;DHT22;20857;47.808;12.482;2023-11-21T00:39:53;9.30;99.90
34646;DHT22;20857;47.808;12.482;2023-11-21T00:42:19;8.90;99.90
34646;DHT22;20857;47.808;12.482;2023-11-21T00:44:44;8.80;99.90
34646;DHT22;20857;47.808;12.482;2023-11-21T00:47:10;8.70;99.90
34646;DHT22;20857;47.808;12.482;2023-11-21T00:49:35;8.60;99.90
34646;DHT22;20857;47.808;12.482;2023-11-21T00:52:01;8.60;99.90
34646;DHT22;20857;47.808;12.482;2023-11-21T00:54:28;8.60;99.90
34646;DHT22;20857;47.808;12.482;2023-11-21T00:56:53;8.60;99.90
34646;DHT22;20857;47.808;12.482;2023-11-21T00:59:19;8.40;99.90
34646;DHT22;20857;47.808;12.482;2023-11-21T01:01:44;8.40;99.90
34646;DHT22;20857;47.808;12.482;2023-11-21T01:04:10;8.30;99.90
34646;DHT22;20857;47.808;12.482;2023-11-21T01:06:36;8.40;99.90
34646;DHT22;20857;47.808;12.482;2023-11-21T01:09:02;8.30;99.90
34646;DHT22;20857;47.808;12.482;2023-11-21T01:11:35;8.20;99.90
34646;DHT22;20857;47.808;12.482;2023-11-21T01:14:03;8.20;99.90
34646;DHT22;20857;47.808;12.482;2023-11-21T01:16:29;8.10;99.90
34646;DHT22;20857;47.808;12.482;2023-11-21T01:18:58;8.10;99.90
34646;DHT22;20857;47.808;12.482;2023-11-21T01:21:24;8.10;99.90
34646;DHT22;20857;47.808;12.482;2023-11-21T01:23:50;8.10;99.90
34646;DHT22;20857;47.808;12.482;2023-11-21T01:26:15;8.80;99.90
34646;DHT22;20857;47.808;12.482;2023-11-21T01:28:41;8.00;99.90
34646;DHT22;20857;47.808;12.482;2023-11-21T01:31:07;7.90;99.90
34646;DHT22;20857;47.808;12.482;2023-11-21T01:33:33;7.90;99.90
34646;DHT22;20857;47.808;12.482;2023-11-21T01:35:58;7.80;99.90
34646;DHT22;20857;47.808;12.482;2023-11-21T01:38:25;7.80;99.90
34646;DHT22;20857;47.808;12.482;2023-11-21T01:40:51;7.70;99.90
34646;DHT22;20857;47.808;12.482;2023-11-21T01:43:16;7.50;99.90
34646;DHT22;20857;47.808;12.482;2023-11-21T01:45:42;7.50;99.90
34646;DHT22;20857;47.808;12.482;2023-11-21T01:48:10;7.40;99.90
34646;DHT22;20857;47.808;12.482;2023-11-21T01:50:36;7.40;99.90
34646;DHT22;20857;47.808;12.482;2023-11-21T01:53:01;7.50;99.90
34646;DHT22;20857;47.808;12.482;2023-11-21T01:55:28;7.40;99.90
34646;DHT22;20857;47.808;12.482;2023-11-21T01:57:56;7.40;99.90
34646;DHT22;20857;47.808;12.482;2023-11-21T02:00:22;7.30;99.90
34646;DHT22;20857;47.808;12.482;2023-11-21T02:03:00;7.30;99.90
34646;DHT22;20857;47.808;12.482;2023-11-21T02:05:25;7.40;99.90
34646;DHT22;20857;47.808;12.482;2023-11-21T02:07:51;7.30;99.90
34646;DHT22;20857;47.808;12.482;2023-11-21T02:10:18;7.30;99.90
34646;DHT22;20857;47.808;12.482;2023-11-21T02:12:49;7.10;99.90
34646;DHT22;20857;47.808;12.482;2023-11-21T02:15:18;7.20;99.90
34646;DHT22;20857;47.808;12.482;2023-11-21T02:17:50;7.60;99.90
34646;DHT22;20857;47.808;12.482;2023-11-21T02:20:20;7.10;99.90
34646;DHT22;20857;47.808;12.482;2023-11-21T02:22:52;7.70;99.90
34646;DHT22;20857;47.808;12.482;2023-11-21T02:25:29;7.00;99.90
34646;DHT22;20857;47.808;12.482;2023-11-21T02:27:55;7.00;99.90
34646;DHT22;20857;47.808;12.482;2023-11-21T02:30:22;7.00;99.90
34646;DHT22;20857;47.808;12.482;2023-11-21T02:32:48;7.00;99.90
34646;DHT22;20857;47.808;12.482;2023-11-21T02:35:14;7.00;99.90
34646;DHT22;20857;47.808;12.482;2023-11-21T02:37:41;7.00;99.90
34646;DHT22;20857;47.808;12.482;2023-11-21T02:40:09;7.00;99.90
34646;DHT22;20857;47.808;12.482;2023-11-21T02:42:35;6.80;99.90
34646;DHT22;20857;47.808;12.482;2023-11-21T02:45:01;6.70;99.90
34646;DHT22;20857;47.808;12.482;2023-11-21T02:47:26;6.70;99.90
34646;DHT22;20857;47.808;12.482;2023-11-21T02:49:52;6.70;99.90
34646;DHT22;20857;47.808;12.482;2023-11-21T02:52:19;6.70;99.90
34646;DHT22;20857;47.808;12.482;2023-11-21T02:54:44;6.50;99.90
34646;DHT22;20857;47.808;12.482;2023-11-21T02:57:10;6.50;99.90
34646;DHT22;20857;47.808;12.482;2023-11-21T02:59:36;6.60;99.90
34646;DHT22;20857;47.808;12.482;2023-11-21T03:02:01;6.60;99.90
34646;DHT22;20857;47.808;12.482;2023-11-21T03:04:27;6.70;99.90
34646;DHT22;20857;47.808;12.482;2023-11-21T03:06:52;6.90;99.90
34646;DHT22;20857;47.808;12.482;2023-11-21T03:09:18;6.90;99.90
34646;DHT22;20857;47.808;12.482;2023-11-21T03:11:44;6.80;99.90
34646;DHT22;20857;47.808;12.482;2023-11-21T03:14:09;7.20;99.90
34646;DHT22;20857;47.808;12.482;2023-11-21T03:16:36;7.40;99.90
34646;DHT22;20857;47.808;12.482;2023-11-21T03:19:03;6.80;99.90
34646;DHT22;20857;47.808;12.482;2023-11-21T03:21:30;6.80;99.90
34646;DHT22;20857;47.808;12.482;2023-11-21T03:23:56;6.70;99.90
34646;DHT22;20857;47.808;12.482;2023-11-21T03:26:21;6.60;99.90
34646;DHT22;20857;47.808;12.482;2023-11-21T03:28:47;6.60;99.90
34646;DHT22;20857;47.808;12.482;2023-11-21T03:31:12;6.80;99.90
34646;DHT22;20857;47.808;12.482;2023-11-21T03:33:38;6.70;99.90
34646;DHT22;20857;47.808;12.482;2023-11-21T03:36:04;6.80;99.90
34646;DHT22;20857;47.808;12.482;2023-11-21T03:38:29;6.80;99.90
34646;DHT22;20857;47.808;12.482;2023-11-21T03:40:55;7.10;99.90
34646;DHT22;20857;47.808;12.482;2023-11-21T03:43:20;7.00;99.90
34646;DHT22;20857;47.808;12.482;2023-11-21T03:45:46;6.70;99.90
34646;DHT22;20857;47.808;12.482;2023-11-21T03:48:12;6.70;99.90
34646;DHT22;20857;47.808;12.482;2023-11-21T03:50:38;6.70;99.90
34646;DHT22;20857;47.808;12.482;2023-11-21T03:53:04;6.70;99.90
34646;DHT22;20857;47.808;12.482;2023-11-21T03:55:30;7.70;99.90
34646;DHT22;20857;47.808;12.482;2023-11-21T03:57:58;7.40;99.90
34646;DHT22;20857;47.808;12.482;2023-11-21T04:00:24;6.90;99.90
34646;DHT22;20857;47.808;12.482;2023-11-21T04:02:52;7.10;99.90
34646;DHT22;20857;47.808;12.482;2023-11-21T04:05:19;7.00;99.90
34646;DHT22;20857;47.808;12.482;2023-11-21T04:07:45;6.80;99.90
34646;DHT22;20857;47.808;12.482;2023-11-21T04:10:10;7.00;99.90
34646;DHT22;20857;47.808;12.482;2023-11-21T04:12:38;6.90;99.90
34646;DHT22;20857;47.808;12.482;2023-11-21T04:15:04;6.80;99.90
34646;DHT22;20857;47.808;12.482;2023-11-21T04:17:30;6.90;99.90
34646;DHT22;20857;47.808;12.482;2023-11-21T04:19:56;6.90;99.90
34646;DHT22;20857;47.808;12.482;2023-11-21T04:22:21;7.30;99.90
34646;DHT22;20857;47.808;12.482;2023-11-21T04:24:47;6.90;99.90
34646;DHT22;20857;47.808;12.482;2023-11-21T04:27:12;7.00;99.90
34646;DHT22;20857;47.808;12.482;2023-11-21T04:29:39;7.00;99.90
34646;DHT22;20857;47.808;12.482;2023-11-21T04:32:06;7.00;99.90
34646;DHT22;20857;47.808;12.482;2023-11-21T04:34:33;7.10;99.90
34646;DHT22;20857;47.808;12.482;2023-11-21T04:37:00;7.20;99.90
34646;DHT22;20857;47.808;12.482;2023-11-21T04:39:26;7.40;99.90
34646;DHT22;20857;47.808;12.482;2023-11-21T04:41:52;7.30;99.90
34646;DHT22;20857;47.808;12.482;2023-11-21T04:44:17;7.10;99.90
34646;DHT22;20857;47.808;12.482;2023-11-21T04:46:43;7.10;99.90
34646;DHT22;20857;47.808;12.482;2023-11-21T04:49:09;7.00;99.90
34646;DHT22;20857;47.808;12.482;2023-11-21T04:51:34;7.00;99.90
34646;DHT22;20857;47.808;12.482;2023-11-21T04:54:00;7.10;99.90
34646;DHT22;20857;47.808;12.482;2023-11-21T04:56:25;7.20;99.90
34646;DHT22;20857;47.808;12.482;2023-11-21T04:58:51;7.10;99.90
34646;DHT22;20857;47.808;12.482;2023-11-21T05:01:17;6.90;99.90
34646;DHT22;20857;47.808;12.482;2023-11-21T05:03:43;6.90;99.90
34646;DHT22;20857;47.808;12.482;2023-11-21T05:06:11;6.90;99.90
34646;DHT22;20857;47.808;12.482;2023-11-21T05:08:37;6.60;99.90
34646;DHT22;20857;47.808;12.482;2023-11-21T05:11:03;6.50;99.90
34646;DHT22;20857;47.808;12.482;2023-11-21T05:16:04;6.50;99.90
34646;DHT22;20857;47.808;12.482;2023-11-21T05:18:31;6.50;99.90
34646;DHT22;20857;47.808;12.482;2023-11-21T05:20:57;7.30;99.90
34646;DHT22;20857;47.808;12.482;2023-11-21T05:23:23;6.90;99.90
34646;DHT22;20857;47.808;12.482;2023-11-21T05:25:48;6.70;99.90
34646;DHT22;20857;47.808;12.482;2023-11-21T05:28:14;6.80;99.90
34646;DHT22;20857;47.808;12.482;2023-11-21T05:30:40;6.90;99.90
34646;DHT22;20857;47.808;12.482;2023-11-21T05:33:05;6.80;99.90
34646;DHT22;20857;47.808;12.482;2023-11-21T05:35:31;6.90;99.90
34646;DHT22;20857;47.808;12.482;2023-11-21T05:37:57;6.80;99.90
34646;DHT22;20857;47.808;12.482;2023-11-21T05:40:22;6.80;99.90
34646;DHT22;20857;47.808;12.482;2023-11-21T05:42:49;6.80;99.90
34646;DHT22;20857;47.808;12.482;2023-11-21T05:45:16;6.80;99.90
34646;DHT22;20857;47.808;12.482;2023-11-21T05:47:44;6.90;99.90
34646;DHT22;20857;47.808;12.482;2023-11-21T05:50:12;6.80;99.90
34646;DHT22;20857;47.808;12.482;2023-11-21T05:52:40;6.80;99.90
34646;DHT22;20857;47.808;12.482;2023-11-21T05:55:07;6.80;99.90
34646;DHT22;20857;47.808;12.482;2023-11-21T05:57:33;6.70;99.90
34646;DHT22;20857;47.808;12.482;2023-11-21T06:00:08;6.90;99.90
34646;DHT22;20857;47.808;12.482;2023-11-21T06:02:53;6.90;99.90
34646;DHT22;20857;47.808;12.482;2023-11-21T06:05:20;6.90;99.90
34646;DHT22;20857;47.808;12.482;2023-11-21T06:07:48;6.70;99.90
34646;DHT22;20857;47.808;12.482;2023-11-21T06:10:14;6.60;99.90
34646;DHT22;20857;47.808;12.482;2023-11-21T06:12:40;6.60;99.90
34646;DHT22;20857;47.808;12.482;2023-11-21T06:15:08;6.60;99.90
34646;DHT22;20857;47.808;12.482;2023-11-21T06:17:35;6.70;99.90
34646;DHT22;20857;47.808;12.482;2023-11-21T06:20:06;7.20;99.90
34646;DHT22;20857;47.808;12.482;2023-11-21T06:22:56;6.80;99.90
34646;DHT22;20857;47.808;12.482;2023-11-21T06:25:37;6.80;99.90
34646;DHT22;20857;47.808;12.482;2023-11-21T06:28:04;8.60;99.90
34646;DHT22;20857;47.808;12.482;2023-11-21T06:30:30;6.90;99.90
34646;DHT22;20857;47.808;12.482;2023-11-21T06:32:56;6.90;99.90
34646;DHT22;20857;47.808;12.482;2023-11-21T06:35:21;6.80;99.90
34646;DHT22;20857;47.808;12.482;2023-11-21T06:37:47;6.90;99.90
34646;DHT22;20857;47.808;12.482;2023-11-21T06:40:14;6.90;99.90
34646;DHT22;20857;47.808;12.482;2023-11-21T06:42:43;6.90;99.90
34646;DHT22;20857;47.808;12.482;2023-11-21T06:45:10;7.10;99.90
34646;DHT22;20857;47.808;12.482;2023-11-21T06:47:36;7.10;99.90
34646;DHT22;20857;47.808;12.482;2023-11-21T06:50:03;7.00;99.90
34646;DHT22;20857;47.808;12.482;2023-11-21T06:52:29;7.00;99.90
34646;DHT22;20857;47.808;12.482;2023-11-21T06:54:55;8.00;99.90
34646;DHT22;20857;47.808;12.482;2023-11-21T06:57:22;7.10;99.90
34646;DHT22;20857;47.808;12.482;2023-11-21T06:59:48;7.20;99.90
34646;DHT22;20857;47.808;12.482;2023-11-21T07:02:13;7.90;99.90
34646;DHT22;20857;47.808;12.482;2023-11-21T07:04:39;7.90;99.90
34646;DHT22;20857;47.808;12.482;2023-11-21T07:07:06;6.90;99.90
34646;DHT22;20857;47.808;12.482;2023-11-21T07:09:35;6.80;99.90
34646;DHT22;20857;47.808;12.482;2023-11-21T07:12:00;6.80;99.90
34646;DHT22;20857;47.808;12.482;2023-11-21T07:14:26;7.10;99.90
34646;DHT22;20857;47.808;12.482;2023-11-21T07:16:52;7.30;99.90
34646;DHT22;20857;47.808;12.482;2023-11-21T07:19:18;7.20;99.90
34646;DHT22;20857;47.808;12.482;2023-11-21T07:21:43;7.30;99.90
34646;DHT22;20857;47.808;12.482;2023-11-21T07:24:09;7.40;99.90
34646;DHT22;20857;47.808;12.482;2023-11-21T07:26:35;7.50;99.90
34646;DHT22;20857;47.808;12.482;2023-11-21T07:29:02;7.50;99.90
34646;DHT22;20857;47.808;12.482;2023-11-21T07:31:31;7.40;99.90
34646;DHT22;20857;47.808;12.482;2023-11-21T07:33:59;7.50;99.90
34646;DHT22;20857;47.808;12.482;2023-11-21T07:36:25;7.40;99.90
34646;DHT22;20857;47.808;12.482;2023-11-21T07:38:51;7.40;99.90
34646;DHT22;20857;47.808;12.482;2023-11-21T07:41:17;7.40;99.90
34646;DHT22;20857;47.808;12.482;2023-11-21T07:43:46;7.50;99.90
34646;DHT22;20857;47.808;12.482;2023-11-21T07:46:12;7.40;99.90
34646;DHT22;20857;47.808;12.482;2023-11-21T07:48:42;7.50;99.90
34646;DHT22;20857;47.808;12.482;2023-11-21T07:51:08;7.50;99.90
34646;DHT22;20857;47.808;12.482;2023-11-21T07:53:35;7.40;99.90
34646;DHT22;20857;47.808;12.482;2023-11-21T07:56:08;7.50;99.90
34646;DHT22;20857;47.808;12.482;2023-11-21T07:58:35;7.50;99.90
34646;DHT22;20857;47.808;12.482;2023-11-21T08:01:01;7.50;99.90
34646;DHT22;20857;47.808;12.482;2023-11-21T08:03:27;7.50;99.90
34646;DHT22;20857;47.808;12.482;2023-11-21T08:05:54;7.50;99.90
34646;DHT22;20857;47.808;12.482;2023-11-21T08:08:20;7.40;99.90
34646;DHT22;20857;47.808;12.482;2023-11-21T08:10:46;7.50;99.90
34646;DHT22;20857;47.808;12.482;2023-11-21T08:13:13;7.60;99.90
34646;DHT22;20857;47.808;12.482;2023-11-21T08:15:41;7.60;99.90
34646;DHT22;20857;47.808;12.482;2023-11-21T08:18:11;7.60;99.90
34646;DHT22;20857;47.808;12.482;2023-11-21T08:20:37;8.30;99.90
34646;DHT22;20857;47.808;12.482;2023-11-21T08:23:05;8.60;99.90
34646;DHT22;20857;47.808;12.482;2023-11-21T08:25:31;7.70;99.90
34646;DHT22;20857;47.808;12.482;2023-11-21T08:27:57;7.90;99.90
34646;DHT22;20857;47.808;12.482;2023-11-21T08:30:23;8.10;99.90
34646;DHT22;20857;47.808;12.482;2023-11-21T08:32:49;8.20;99.90
34646;DHT22;20857;47.808;12.482;2023-11-21T08:35:17;8.30;99.90
34646;DHT22;20857;47.808;12.482;2023-11-21T08:37:43;8.30;99.90
34646;DHT22;20857;47.808;12.482;2023-11-21T08:40:09;8.30;99.90
34646;DHT22;20857;47.808;12.482;2023-11-21T08:42:35;8.30;99.90
34646;DHT22;20857;47.808;12.482;2023-11-21T08:45:01;8.30;99.90
34646;DHT22;20857;47.808;12.482;2023-11-21T08:47:27;8.10;99.90
34646;DHT22;20857;47.808;12.482;2023-11-21T08:49:52;8.40;99.90
34646;DHT22;20857;47.808;12.482;2023-11-21T08:52:19;8.10;99.90
34646;DHT22;20857;47.808;12.482;2023-11-21T08:54:48;8.10;99.90
34646;DHT22;20857;47.808;12.482;2023-11-21T08:57:14;8.60;99.90
34646;DHT22;20857;47.808;12.482;2023-11-21T08:59:39;8.10;99.90
34646;DHT22;20857;47.808;12.482;2023-11-21T09:02:05;8.40;99.90
34646;DHT22;20857;47.808;12.482;2023-11-21T09:04:31;8.60;99.90
34646;DHT22;20857;47.808;12.482;2023-11-21T09:06:57;8.80;99.90
34646;DHT22;20857;47.808;12.482;2023-11-21T09:09:25;8.10;99.90
34646;DHT22;20857;47.808;12.482;2023-11-21T09:11:50;8.10;99.90
34646;DHT22;20857;47.808;12.482;2023-11-21T09:14:16;8.10;99.90
34646;DHT22;20857;47.808;12.482;2023-11-21T09:16:43;8.40;99.90
34646;DHT22;20857;47.808;12.482;2023-11-21T09:19:09;8.30;99.90
34646;DHT22;20857;47.808;12.482;2023-11-21T09:21:34;8.10;99.90
34646;DHT22;20857;47.808;12.482;2023-11-21T09:24:00;8.90;99.90
34646;DHT22;20857;47.808;12.482;2023-11-21T09:26:25;8.40;99.90
34646;DHT22;20857;47.808;12.482;2023-11-21T09:28:51;8.30;99.90
34646;DHT22;20857;47.808;12.482;2023-11-21T09:31:18;8.50;99.90
34646;DHT22;20857;47.808;12.482;2023-11-21T09:33:48;9.10;99.90
34646;DHT22;20857;47.808;12.482;2023-11-21T09:36:14;8.50;99.90
34646;DHT22;20857;47.808;12.482;2023-11-21T09:38:42;8.80;99.90
34646;DHT22;20857;47.808;12.482;2023-11-21T09:41:15;8.90;99.90
34646;DHT22;20857;47.808;12.482;2023-11-21T09:43:46;8.90;99.90
34646;DHT22;20857;47.808;12.482;2023-11-21T09:46:13;8.70;99.90
34646;DHT22;20857;47.808;12.482;2023-11-21T09:48:46;8.60;99.90
34646;DHT22;20857;47.808;12.482;2023-11-21T09:51:13;9.00;99.90
34646;DHT22;20857;47.808;12.482;2023-11-21T09:53:41;8.40;99.90
34646;DHT22;20857;47.808;12.482;2023-11-21T09:56:09;8.30;99.90
34646;DHT22;20857;47.808;12.482;2023-11-21T09:58:35;8.30;99.90
34646;DHT22;20857;47.808;12.482;2023-11-21T10:01:01;8.40;99.90
34646;DHT22;20857;47.808;12.482;2023-11-21T10:03:28;8.10;99.90
34646;DHT22;20857;47.808;12.482;2023-11-21T10:05:56;8.10;99.90
34646;DHT22;20857;47.808;12.482;2023-11-21T10:08:26;8.00;99.90
34646;DHT22;20857;47.808;12.482;2023-11-21T10:10:54;7.90;99.90
34646;DHT22;20857;47.808;12.482;2023-11-21T10:13:21;7.90;99.90
34646;DHT22;20857;47.808;12.482;2023-11-21T10:15:50;7.90;99.90
34646;DHT22;20857;47.808;12.482;2023-11-21T10:18:17;8.10;99.90
34646;DHT22;20857;47.808;12.482;2023-11-21T10:20:44;8.60;99.90
34646;DHT22;20857;47.808;12.482;2023-11-21T10:23:21;8.50;99.90
34646;DHT22;20857;47.808;12.482;2023-11-21T10:25:47;8.60;99.90
34646;DHT22;20857;47.808;12.482;2023-11-21T10:28:15;8.60;99.90
34646;DHT22;20857;47.808;12.482;2023-11-21T10:30:41;8.70;99.90
34646;DHT22;20857;47.808;12.482;2023-11-21T10:33:07;8.70;99.90
34646;DHT22;20857;47.808;12.482;2023-11-21T10:35:54;8.70;99.90
34646;DHT22;20857;47.808;12.482;2023-11-21T10:38:21;8.50;99.90
34646;DHT22;20857;47.808;12.482;2023-11-21T10:40:49;8.50;99.90
34646;DHT22;20857;47.808;12.482;2023-11-21T10:43:15;8.50;99.90
34646;DHT22;20857;47.808;12.482;2023-11-21T10:45:41;8.60;99.90
34646;DHT22;20857;47.808;12.482;2023-11-21T10:48:15;8.60;99.90
34646;DHT22;20857;47.808;12.482;2023-11-21T10:50:41;8.50;99.90
34646;DHT22;20857;47.808;12.482;2023-11-21T10:53:07;8.50;99.90
34646;DHT22;20857;47.808;12.482;2023-11-21T10:55:34;8.50;99.90
34646;DHT22;20857;47.808;12.482;2023-11-21T10:58:01;8.50;99.90
34646;DHT22;20857;47.808;12.482;2023-11-21T11:00:29;8.50;99.90
34646;DHT22;20857;47.808;12.482;2023-11-21T11:02:54;8.60;99.90
34646;DHT22;20857;47.808;12.482;2023-11-21T11:05:22;8.50;99.90
34646;DHT22;20857;47.808;12.482;2023-11-21T11:07:58;8.50;99.90
34646;DHT22;20857;47.808;12.482;2023-11-21T11:10:27;8.40;99.90
34646;DHT22;20857;47.808;12.482;2023-11-21T11:12:55;8.90;99.90
34646;DHT22;20857;47.808;12.482;2023-11-21T11:15:21;8.30;99.90
34646;DHT22;20857;47.808;12.482;2023-11-21T11:17:48;8.10;99.90
34646;DHT22;20857;47.808;12.482;2023-11-21T11:20:16;8.10;99.90
34646;DHT22;20857;47.808;12.482;2023-11-21T11:30:44;8.00;99.90
34646;DHT22;20857;47.808;12.482;2023-11-21T11:39:00;8.30;99.90
34646;DHT22;20857;47.808;12.482;2023-11-21T11:41:30;8.10;99.90
34646;DHT22;20857;47.808;12.482;2023-11-21T11:43:58;7.90;99.90
34646;DHT22;20857;47.808;12.482;2023-11-21T11:46:44;8.10;99.90
34646;DHT22;20857;47.808;12.482;2023-11-21T11:49:28;7.80;99.90
34646;DHT22;20857;47.808;12.482;2023-11-21T11:52:32;7.80;99.90
34646;DHT22;20857;47.808;12.482;2023-11-21T11:54:59;8.00;99.90
34646;DHT22;20857;47.808;12.482;2023-11-21T11:57:25;8.10;99.90
34646;DHT22;20857;47.808;12.482;2023-11-21T12:00:13;8.30;99.90
34646;DHT22;20857;47.808;12.482;2023-11-21T12:02:52;8.50;99.90
34646;DHT22;20857;47.808;12.482;2023-11-21T12:05:19;8.70;99.90
34646;DHT22;20857;47.808;12.482;2023-11-21T12:10:23;9.10;99.90
34646;DHT22;20857;47.808;12.482;2023-11-21T12:13:13;9.40;99.90
34646;DHT22;20857;47.808;12.482;2023-11-21T12:15:39;9.60;99.90
34646;DHT22;20857;47.808;12.482;2023-11-21T12:18:07;9.70;99.90
34646;DHT22;20857;47.808;12.482;2023-11-21T12:20:32;9.50;99.90
34646;DHT22;20857;47.808;12.482;2023-11-21T12:23:04;9.70;99.90
34646;DHT22;20857;47.808;12.482;2023-11-21T12:25:31;9.80;99.90
34646;DHT22;20857;47.808;12.482;2023-11-21T12:28:02;9.90;99.90
34646;DHT22;20857;47.808;12.482;2023-11-21T12:30:34;9.90;99.90
34646;DHT22;20857;47.808;12.482;2023-11-21T12:33:04;9.80;99.90
34646;DHT22;20857;47.808;12.482;2023-11-21T12:35:33;9.70;99.90
34646;DHT22;20857;47.808;12.482;2023-11-21T12:38:02;9.60;99.90
34646;DHT22;20857;47.808;12.482;2023-11-21T12:40:31;9.40;99.90
34646;DHT22;20857;47.808;12.482;2023-11-21T12:42:58;9.30;99.90
34646;DHT22;20857;47.808;12.482;2023-11-21T12:45:28;9.10;99.90
34646;DHT22;20857;47.808;12.482;2023-11-21T12:47:58;8.90;99.90
34646;DHT22;20857;47.808;12.482;2023-11-21T12:50:25;8.80;99.90
34646;DHT22;20857;47.808;12.482;2023-11-21T12:52:58;8.80;99.90
34646;DHT22;20857;47.808;12.482;2023-11-21T12:55:24;8.70;99.90
34646;DHT22;20857;47.808;12.482;2023-11-21T12:57:53;8.70;99.90
34646;DHT22;20857;47.808;12.482;2023-11-21T13:00:31;8.70;99.90
34646;DHT22;20857;47.808;12.482;2023-11-21T13:02:58;8.90;99.90
34646;DHT22;20857;47.808;12.482;2023-11-21T13:05:28;8.90;99.90
34646;DHT22;20857;47.808;12.482;2023-11-21T13:07:56;9.00;99.90
34646;DHT22;20857;47.808;12.482;2023-11-21T13:10:26;8.90;99.90
34646;DHT22;20857;47.808;12.482;2023-11-21T13:13:02;8.90;99.90
34646;DHT22;20857;47.808;12.482;2023-11-21T13:15:31;8.70;99.90
34646;DHT22;20857;47.808;12.482;2023-11-21T13:17:58;8.60;99.90
34646;DHT22;20857;47.808;12.482;2023-11-21T13:20:27;8.40;99.90
34646;DHT22;20857;47.808;12.482;2023-11-21T13:22:55;8.40;99.90
34646;DHT22;20857;47.808;12.482;2023-11-21T13:25:25;8.30;99.90
34646;DHT22;20857;47.808;12.482;2023-11-21T13:28:02;8.40;99.90
34646;DHT22;20857;47.808;12.482;2023-11-21T13:30:28;8.30;99.90
34646;DHT22;20857;47.808;12.482;2023-11-21T13:33:03;8.30;99.90
34646;DHT22;20857;47.808;12.482;2023-11-21T13:35:34;8.30;99.90
34646;DHT22;20857;47.808;12.482;2023-11-21T13:38:08;8.30;99.90
34646;DHT22;20857;47.808;12.482;2023-11-21T13:40:35;8.50;99.90
34646;DHT22;20857;47.808;12.482;2023-11-21T13:43:09;9.00;99.90
34646;DHT22;20857;47.808;12.482;2023-11-21T13:45:42;8.30;99.90
34646;DHT22;20857;47.808;12.482;2023-11-21T13:48:09;8.40;99.90
34646;DHT22;20857;47.808;12.482;2023-11-21T13:50:39;8.40;99.90
34646;DHT22;20857;47.808;12.482;2023-11-21T13:53:10;8.40;99.90
34646;DHT22;20857;47.808;12.482;2023-11-21T13:55:48;8.40;99.90
34646;DHT22;20857;47.808;12.482;2023-11-21T13:58:15;8.40;99.90
34646;DHT22;20857;47.808;12.482;2023-11-21T14:00:47;8.30;99.90
34646;DHT22;20857;47.808;12.482;2023-11-21T14:03:21;8.20;99.90
34646;DHT22;20857;47.808;12.482;2023-11-21T14:05:48;8.20;99.90
34646;DHT22;20857;47.808;12.482;2023-11-21T14:08:20;8.10;99.90
34646;DHT22;20857;47.808;12.482;2023-11-21T14:10:49;8.10;99.90
34646;DHT22;20857;47.808;12.482;2023-11-21T14:13:23;8.00;99.90
34646;DHT22;20857;47.808;12.482;2023-11-21T14:15:50;8.00;99.90
34646;DHT22;20857;47.808;12.482;2023-11-21T14:18:23;8.00;99.90
34646;DHT22;20857;47.808;12.482;2023-11-21T14:20:56;8.10;99.90
34646;DHT22;20857;47.808;12.482;2023-11-21T14:23:21;7.90;99.90
34646;DHT22;20857;47.808;12.482;2023-11-21T14:25:48;7.90;99.90
34646;DHT22;20857;47.808;12.482;2023-11-21T14:28:15;8.00;99.90
34646;DHT22;20857;47.808;12.482;2023-11-21T14:30:41;7.90;99.90
34646;DHT22;20857;47.808;12.482;2023-11-21T14:33:08;8.00;99.90
34646;DHT22;20857;47.808;12.482;2023-11-21T14:35:35;8.00;99.90
34646;DHT22;20857;47.808;12.482;2023-11-21T14:38:01;8.10;99.90
34646;DHT22;20857;47.808;12.482;2023-11-21T14:40:32;8.10;99.90
34646;DHT22;20857;47.808;12.482;2023-11-21T14:43:02;8.10;99.90
34646;DHT22;20857;47.808;12.482;2023-11-21T14:45:32;8.10;99.90
34646;DHT22;20857;47.808;12.482;2023-11-21T14:47:57;8.10;99.90
34646;DHT22;20857;47.808;12.482;2023-11-21T14:50:40;8.30;99.90
34646;DHT22;20857;47.808;12.482;2023-11-21T14:53:09;8.20;99.90
34646;DHT22;20857;47.808;12.482;2023-11-21T14:55:37;8.60;99.90
34646;DHT22;20857;47.808;12.482;2023-11-21T14:58:15;8.10;99.90
34646;DHT22;20857;47.808;12.482;2023-11-21T15:00:45;8.00;99.90
34646;DHT22;20857;47.808;12.482;2023-11-21T15:03:11;8.00;99.90
34646;DHT22;20857;47.808;12.482;2023-11-21T15:06:02;8.00;99.90
34646;DHT22;20857;47.808;12.482;2023-11-21T15:09:03;7.90;99.90
34646;DHT22;20857;47.808;12.482;2023-11-21T15:11:35;8.00;99.90
34646;DHT22;20857;47.808;12.482;2023-11-21T15:14:02;7.90;99.90
34646;DHT22;20857;47.808;12.482;2023-11-21T15:16:33;7.90;99.90
34646;DHT22;20857;47.808;12.482;2023-11-21T15:18:58;8.00;99.90
34646;DHT22;20857;47.808;12.482;2023-11-21T15:21:25;8.00;99.90
34646;DHT22;20857;47.808;12.482;2023-11-21T15:23:51;7.70;99.90
34646;DHT22;20857;47.808;12.482;2023-11-21T15:26:16;7.30;99.90
34646;DHT22;20857;47.808;12.482;2023-11-21T15:28:42;6.80;99.90
34646;DHT22;20857;47.808;12.482;2023-11-21T15:31:08;6.60;99.90
34646;DHT22;20857;47.808;12.482;2023-11-21T15:33:34;6.40;99.90
34646;DHT22;20857;47.808;12.482;2023-11-21T15:36:02;6.40;99.90
34646;DHT22;20857;47.808;12.482;2023-11-21T15:38:29;6.30;99.90
34646;DHT22;20857;47.808;12.482;2023-11-21T15:40:55;6.50;99.90
34646;DHT22;20857;47.808;12.482;2023-11-21T15:43:20;6.30;99.90
34646;DHT22;20857;47.808;12.482;2023-11-21T15:45:46;6.30;99.90
34646;DHT22;20857;47.808;12.482;2023-11-21T15:48:12;6.30;99.90
34646;DHT22;20857;47.808;12.482;2023-11-21T15:50:37;6.40;99.90
34646;DHT22;20857;47.808;12.482;2023-11-21T15:53:03;6.40;99.90